sensor_id;sensor_type;location;lat;lon;timestamp;pressure;altitude;pressure_sealevel;temperature;humidity
14689;BME280;7432;48.728;9.154;2022-10-28T00:00:50;97335.69;;;13.97;91.34
14689;BME280;7432;48.728;9.154;2022-10-28T00:03:17;97330.84;;;14.02;90.69
14689;BME280;7432;48.728;9.154;2022-10-28T00:05:45;97326.97;;;14.06;90.54
14689;BME280;7432;48.728;9.154;2022-10-28T00:08:12;97331.19;;;14.07;90.95
14689;BME280;7432;48.728;9.154;2022-10-28T00:10:38;97335.56;;;14.06;90.21
14689;BME280;7432;48.728;9.154;2022-10-28T00:13:04;97329.88;;;14.03;90.54
14689;BME280;7432;48.728;9.154;2022-10-28T00:15:32;97335.53;;;13.98;90.81
14689;BME280;7432;48.728;9.154;2022-10-28T00:17:59;97328.56;;;13.91;91.18
14689;BME280;7432;48.728;9.154;2022-10-28T00:20:25;97332.13;;;13.90;91.88
14689;BME280;7432;48.728;9.154;2022-10-28T00:22:53;97329.38;;;13.91;91.90
14689;BME280;7432;48.728;9.154;2022-10-28T00:25:20;97330.69;;;13.95;91.27
14689;BME280;7432;48.728;9.154;2022-10-28T00:27:49;97330.03;;;13.93;90.80
14689;BME280;7432;48.728;9.154;2022-10-28T00:30:15;97328.09;;;13.95;91.03
14689;BME280;7432;48.728;9.154;2022-10-28T00:32:41;97326.16;;;13.97;90.77
14689;BME280;7432;48.728;9.154;2022-10-28T00:35:08;97329.22;;;14.01;90.65
14689;BME280;7432;48.728;9.154;2022-10-28T00:37:34;97328.25;;;14.10;90.64
14689;BME280;7432;48.728;9.154;2022-10-28T00:40:03;97332.66;;;14.09;90.19
14689;BME280;7432;48.728;9.154;2022-10-28T00:42:29;97336.50;;;14.05;90.54
14689;BME280;7432;48.728;9.154;2022-10-28T00:44:57;97331.34;;;14.05;90.67
14689;BME280;7432;48.728;9.154;2022-10-28T00:47:32;97328.75;;;14.13;90.34
14689;BME280;7432;48.728;9.154;2022-10-28T00:50:06;97332.47;;;14.11;90.11
14689;BME280;7432;48.728;9.154;2022-10-28T00:52:36;97329.06;;;14.10;90.56
14689;BME280;7432;48.728;9.154;2022-10-28T00:55:06;97330.19;;;14.08;90.34
14689;BME280;7432;48.728;9.154;2022-10-28T00:57:35;97320.16;;;14.13;90.54
14689;BME280;7432;48.728;9.154;2022-10-28T01:00:05;97327.28;;;14.19;90.00
14689;BME280;7432;48.728;9.154;2022-10-28T01:02:36;97328.75;;;14.21;89.75
14689;BME280;7432;48.728;9.154;2022-10-28T01:05:07;97330.06;;;14.17;90.12
14689;BME280;7432;48.728;9.154;2022-10-28T01:07:34;97331.66;;;14.18;90.16
14689;BME280;7432;48.728;9.154;2022-10-28T01:10:01;97334.75;;;14.14;90.84
14689;BME280;7432;48.728;9.154;2022-10-28T01:12:34;97326.00;;;14.15;90.62
14689;BME280;7432;48.728;9.154;2022-10-28T01:15:11;97321.28;;;14.02;90.76
14689;BME280;7432;48.728;9.154;2022-10-28T01:17:53;97315.78;;;14.05;90.58
14689;BME280;7432;48.728;9.154;2022-10-28T01:20:42;97326.66;;;14.01;90.90
14689;BME280;7432;48.728;9.154;2022-10-28T01:23:13;97321.59;;;13.99;91.36
14689;BME280;7432;48.728;9.154;2022-10-28T01:26:00;97312.56;;;13.87;91.10
14689;BME280;7432;48.728;9.154;2022-10-28T01:28:50;97317.41;;;13.82;91.70
14689;BME280;7432;48.728;9.154;2022-10-28T01:31:35;97316.06;;;13.70;92.29
14689;BME280;7432;48.728;9.154;2022-10-28T01:34:09;97313.97;;;13.65;92.53
14689;BME280;7432;48.728;9.154;2022-10-28T01:36:44;97311.72;;;13.71;92.32
14689;BME280;7432;48.728;9.154;2022-10-28T01:39:24;97315.13;;;13.71;92.07
14689;BME280;7432;48.728;9.154;2022-10-28T01:41:56;97305.41;;;13.65;92.59
14689;BME280;7432;48.728;9.154;2022-10-28T01:44:29;97311.69;;;13.62;93.34
14689;BME280;7432;48.728;9.154;2022-10-28T01:47:02;97317.00;;;13.53;93.25
14689;BME280;7432;48.728;9.154;2022-10-28T01:49:32;97319.41;;;13.46;93.69
14689;BME280;7432;48.728;9.154;2022-10-28T01:52:05;97319.09;;;13.41;94.54
14689;BME280;7432;48.728;9.154;2022-10-28T01:54:33;97313.72;;;13.35;94.29
14689;BME280;7432;48.728;9.154;2022-10-28T01:57:02;97307.56;;;13.28;94.38
14689;BME280;7432;48.728;9.154;2022-10-28T01:59:31;97307.50;;;13.20;94.97
14689;BME280;7432;48.728;9.154;2022-10-28T02:02:01;97311.19;;;13.09;95.42
14689;BME280;7432;48.728;9.154;2022-10-28T02:04:27;97310.81;;;13.04;95.36
14689;BME280;7432;48.728;9.154;2022-10-28T02:06:55;97311.44;;;12.98;95.43
14689;BME280;7432;48.728;9.154;2022-10-28T02:09:29;97306.09;;;12.91;96.04
14689;BME280;7432;48.728;9.154;2022-10-28T02:12:19;97306.84;;;12.84;96.07
14689;BME280;7432;48.728;9.154;2022-10-28T02:14:54;97308.28;;;12.78;96.35
14689;BME280;7432;48.728;9.154;2022-10-28T02:17:36;97304.97;;;12.68;96.77
14689;BME280;7432;48.728;9.154;2022-10-28T02:20:08;97300.78;;;12.67;97.13
14689;BME280;7432;48.728;9.154;2022-10-28T02:22:41;97294.59;;;12.60;97.96
14689;BME280;7432;48.728;9.154;2022-10-28T02:25:14;97292.00;;;12.60;97.86
14689;BME280;7432;48.728;9.154;2022-10-28T02:27:45;97295.88;;;12.56;97.57
14689;BME280;7432;48.728;9.154;2022-10-28T02:30:17;97292.78;;;12.53;98.23
14689;BME280;7432;48.728;9.154;2022-10-28T02:32:49;97293.72;;;12.52;98.47
14689;BME280;7432;48.728;9.154;2022-10-28T02:35:18;97294.06;;;12.48;98.27
14689;BME280;7432;48.728;9.154;2022-10-28T02:37:47;97290.66;;;12.48;98.80
14689;BME280;7432;48.728;9.154;2022-10-28T02:40:18;97287.72;;;12.43;99.36
14689;BME280;7432;48.728;9.154;2022-10-28T02:42:49;97282.56;;;12.43;98.94
14689;BME280;7432;48.728;9.154;2022-10-28T02:45:20;97278.88;;;12.45;99.15
14689;BME280;7432;48.728;9.154;2022-10-28T02:47:54;97275.47;;;12.45;99.22
14689;BME280;7432;48.728;9.154;2022-10-28T02:50:25;97288.22;;;12.46;99.63
14689;BME280;7432;48.728;9.154;2022-10-28T02:52:56;97285.31;;;12.49;99.56
14689;BME280;7432;48.728;9.154;2022-10-28T02:55:29;97286.31;;;12.48;99.53
14689;BME280;7432;48.728;9.154;2022-10-28T02:57:57;97289.84;;;12.47;99.80
14689;BME280;7432;48.728;9.154;2022-10-28T03:00:25;97283.72;;;12.48;99.97
14689;BME280;7432;48.728;9.154;2022-10-28T03:02:53;97285.31;;;12.49;100.00
14689;BME280;7432;48.728;9.154;2022-10-28T03:05:19;97290.50;;;12.49;100.00
14689;BME280;7432;48.728;9.154;2022-10-28T03:07:45;97287.78;;;12.51;100.00
14689;BME280;7432;48.728;9.154;2022-10-28T03:10:12;97283.25;;;12.53;100.00
14689;BME280;7432;48.728;9.154;2022-10-28T03:12:38;97280.06;;;12.59;100.00
14689;BME280;7432;48.728;9.154;2022-10-28T03:15:06;97288.31;;;12.63;100.00
14689;BME280;7432;48.728;9.154;2022-10-28T03:17:32;97280.25;;;12.66;100.00
14689;BME280;7432;48.728;9.154;2022-10-28T03:20:00;97294.34;;;12.71;99.89
14689;BME280;7432;48.728;9.154;2022-10-28T03:22:26;97291.16;;;12.77;99.81
14689;BME280;7432;48.728;9.154;2022-10-28T03:24:53;97292.13;;;12.84;100.00
14689;BME280;7432;48.728;9.154;2022-10-28T03:27:19;97288.63;;;12.93;99.65
14689;BME280;7432;48.728;9.154;2022-10-28T03:29:45;97282.84;;;12.99;99.48
14689;BME280;7432;48.728;9.154;2022-10-28T03:32:12;97271.53;;;13.00;99.30
14689;BME280;7432;48.728;9.154;2022-10-28T03:34:39;97282.59;;;13.11;99.21
14689;BME280;7432;48.728;9.154;2022-10-28T03:37:06;97279.72;;;13.22;98.34
14689;BME280;7432;48.728;9.154;2022-10-28T03:39:33;97274.91;;;13.27;98.42
14689;BME280;7432;48.728;9.154;2022-10-28T03:41:59;97281.84;;;13.34;98.23
14689;BME280;7432;48.728;9.154;2022-10-28T03:44:26;97286.56;;;13.39;97.79
14689;BME280;7432;48.728;9.154;2022-10-28T03:46:52;97287.06;;;13.42;97.82
14689;BME280;7432;48.728;9.154;2022-10-28T03:49:18;97273.81;;;13.45;97.72
14689;BME280;7432;48.728;9.154;2022-10-28T03:51:45;97274.75;;;13.44;97.28
14689;BME280;7432;48.728;9.154;2022-10-28T03:54:12;97274.75;;;13.44;96.61
14689;BME280;7432;48.728;9.154;2022-10-28T03:56:39;97274.28;;;13.41;96.75
14689;BME280;7432;48.728;9.154;2022-10-28T03:59:05;97270.88;;;13.40;96.74
14689;BME280;7432;48.728;9.154;2022-10-28T04:01:33;97272.84;;;13.38;97.30
14689;BME280;7432;48.728;9.154;2022-10-28T04:03:59;97267.66;;;13.38;96.97
14689;BME280;7432;48.728;9.154;2022-10-28T04:06:26;97272.16;;;13.36;97.01
14689;BME280;7432;48.728;9.154;2022-10-28T04:08:52;97265.38;;;13.35;96.99
14689;BME280;7432;48.728;9.154;2022-10-28T04:11:20;97267.66;;;13.38;97.01
14689;BME280;7432;48.728;9.154;2022-10-28T04:13:46;97271.03;;;13.39;96.45
14689;BME280;7432;48.728;9.154;2022-10-28T04:16:13;97265.84;;;13.39;96.58
14689;BME280;7432;48.728;9.154;2022-10-28T04:18:39;97266.84;;;13.38;96.80
14689;BME280;7432;48.728;9.154;2022-10-28T04:21:05;97262.00;;;13.43;96.63
14689;BME280;7432;48.728;9.154;2022-10-28T04:23:32;97259.91;;;13.46;96.62
14689;BME280;7432;48.728;9.154;2022-10-28T04:25:58;97258.94;;;13.47;96.42
14689;BME280;7432;48.728;9.154;2022-10-28T04:28:26;97263.97;;;13.49;96.95
14689;BME280;7432;48.728;9.154;2022-10-28T04:30:52;97255.88;;;13.52;97.16
14689;BME280;7432;48.728;9.154;2022-10-28T04:33:19;97257.81;;;13.58;97.19
14689;BME280;7432;48.728;9.154;2022-10-28T04:35:45;97267.19;;;13.59;97.10
14689;BME280;7432;48.728;9.154;2022-10-28T04:38:12;97261.72;;;13.62;96.16
14689;BME280;7432;48.728;9.154;2022-10-28T04:40:39;97259.75;;;13.72;94.92
14689;BME280;7432;48.728;9.154;2022-10-28T04:43:05;97240.50;;;13.66;94.14
14689;BME280;7432;48.728;9.154;2022-10-28T04:45:33;97258.63;;;13.83;94.36
14689;BME280;7432;48.728;9.154;2022-10-28T04:48:00;97253.81;;;13.88;93.88
14689;BME280;7432;48.728;9.154;2022-10-28T04:50:27;97268.34;;;13.89;93.40
14689;BME280;7432;48.728;9.154;2022-10-28T04:52:53;97258.81;;;13.89;93.61
14689;BME280;7432;48.728;9.154;2022-10-28T04:55:20;97268.53;;;13.87;94.00
14689;BME280;7432;48.728;9.154;2022-10-28T04:57:52;97273.22;;;13.84;95.30
14689;BME280;7432;48.728;9.154;2022-10-28T05:00:19;97266.75;;;13.80;94.89
14689;BME280;7432;48.728;9.154;2022-10-28T05:02:46;97264.16;;;13.80;95.27
14689;BME280;7432;48.728;9.154;2022-10-28T05:05:13;97265.94;;;13.79;95.57
14689;BME280;7432;48.728;9.154;2022-10-28T05:07:39;97264.16;;;13.80;95.04
14689;BME280;7432;48.728;9.154;2022-10-28T05:10:06;97260.91;;;13.78;95.30
14689;BME280;7432;48.728;9.154;2022-10-28T05:12:32;97261.91;;;13.77;95.58
14689;BME280;7432;48.728;9.154;2022-10-28T05:14:59;97257.03;;;13.74;95.04
14689;BME280;7432;48.728;9.154;2022-10-28T05:17:25;97254.44;;;13.74;94.53
14689;BME280;7432;48.728;9.154;2022-10-28T05:19:53;97247.63;;;13.73;94.91
14689;BME280;7432;48.728;9.154;2022-10-28T05:22:19;97248.13;;;13.68;95.01
14689;BME280;7432;48.728;9.154;2022-10-28T05:24:46;97241.97;;;13.61;95.19
14689;BME280;7432;48.728;9.154;2022-10-28T05:27:12;97243.41;;;13.55;95.53
14689;BME280;7432;48.728;9.154;2022-10-28T05:29:38;97236.44;;;13.48;95.56
14689;BME280;7432;48.728;9.154;2022-10-28T05:32:05;97242.63;;;13.47;95.27
14689;BME280;7432;48.728;9.154;2022-10-28T05:34:31;97242.94;;;13.44;95.39
14689;BME280;7432;48.728;9.154;2022-10-28T05:36:59;97240.47;;;13.42;95.60
14689;BME280;7432;48.728;9.154;2022-10-28T05:39:25;97239.03;;;13.40;95.41
14689;BME280;7432;48.728;9.154;2022-10-28T05:41:52;97244.38;;;13.38;95.99
14689;BME280;7432;48.728;9.154;2022-10-28T05:44:18;97240.16;;;13.37;95.80
14689;BME280;7432;48.728;9.154;2022-10-28T05:46:44;97242.75;;;13.37;95.02
14689;BME280;7432;48.728;9.154;2022-10-28T05:49:11;97239.34;;;13.37;94.95
14689;BME280;7432;48.728;9.154;2022-10-28T05:51:37;97248.09;;;13.36;95.06
14689;BME280;7432;48.728;9.154;2022-10-28T05:54:05;97240.47;;;13.34;94.93
14689;BME280;7432;48.728;9.154;2022-10-28T05:56:31;97244.81;;;13.34;94.99
14689;BME280;7432;48.728;9.154;2022-10-28T05:58:58;97248.53;;;13.31;95.37
14689;BME280;7432;48.728;9.154;2022-10-28T06:01:24;97246.59;;;13.25;95.61
14689;BME280;7432;48.728;9.154;2022-10-28T06:03:51;97250.47;;;13.21;95.34
14689;BME280;7432;48.728;9.154;2022-10-28T06:06:17;97255.00;;;13.19;95.42
14689;BME280;7432;48.728;9.154;2022-10-28T06:08:43;97248.38;;;13.17;96.19
14689;BME280;7432;48.728;9.154;2022-10-28T06:11:11;97251.72;;;13.17;95.57
14689;BME280;7432;48.728;9.154;2022-10-28T06:13:37;97243.53;;;13.22;95.68
14689;BME280;7432;48.728;9.154;2022-10-28T06:16:05;97253.38;;;13.18;95.20
14689;BME280;7432;48.728;9.154;2022-10-28T06:18:31;97253.53;;;13.17;95.13
14689;BME280;7432;48.728;9.154;2022-10-28T06:20:58;97269.19;;;13.15;95.79
14689;BME280;7432;48.728;9.154;2022-10-28T06:23:25;97254.97;;;13.11;95.47
14689;BME280;7432;48.728;9.154;2022-10-28T06:25:55;97269.50;;;13.12;95.50
14689;BME280;7432;48.728;9.154;2022-10-28T06:28:23;97259.03;;;13.22;94.08
14689;BME280;7432;48.728;9.154;2022-10-28T06:30:50;97265.50;;;13.26;93.84
14689;BME280;7432;48.728;9.154;2022-10-28T06:33:16;97262.94;;;13.34;92.24
14689;BME280;7432;48.728;9.154;2022-10-28T06:35:43;97261.03;;;13.44;91.65
14689;BME280;7432;48.728;9.154;2022-10-28T06:38:09;97263.78;;;13.58;90.01
14689;BME280;7432;48.728;9.154;2022-10-28T06:40:36;97259.44;;;13.83;87.62
14689;BME280;7432;48.728;9.154;2022-10-28T06:43:05;97256.88;;;13.91;88.36
14689;BME280;7432;48.728;9.154;2022-10-28T06:45:33;97255.72;;;13.94;88.61
14689;BME280;7432;48.728;9.154;2022-10-28T06:48:02;97252.19;;;13.95;89.87
14689;BME280;7432;48.728;9.154;2022-10-28T06:50:29;97255.59;;;13.95;90.41
14689;BME280;7432;48.728;9.154;2022-10-28T06:52:56;97244.91;;;13.98;89.58
14689;BME280;7432;48.728;9.154;2022-10-28T06:55:24;97248.94;;;14.01;88.53
14689;BME280;7432;48.728;9.154;2022-10-28T06:57:50;97260.75;;;14.19;86.24
14689;BME280;7432;48.728;9.154;2022-10-28T07:00:17;97257.16;;;14.53;81.94
14689;BME280;7432;48.728;9.154;2022-10-28T07:02:49;97256.94;;;14.70;80.39
14689;BME280;7432;48.728;9.154;2022-10-28T07:05:15;97250.91;;;14.86;79.88
14689;BME280;7432;48.728;9.154;2022-10-28T07:07:42;97250.97;;;15.09;77.43
14689;BME280;7432;48.728;9.154;2022-10-28T07:10:08;97260.91;;;15.28;76.86
14689;BME280;7432;48.728;9.154;2022-10-28T07:12:34;97255.34;;;15.39;76.60
14689;BME280;7432;48.728;9.154;2022-10-28T07:15:01;97256.31;;;15.46;76.26
14689;BME280;7432;48.728;9.154;2022-10-28T07:17:27;97261.91;;;15.58;75.17
14689;BME280;7432;48.728;9.154;2022-10-28T07:19:55;97266.56;;;15.70;74.89
14689;BME280;7432;48.728;9.154;2022-10-28T07:22:21;97275.38;;;15.84;75.66
14689;BME280;7432;48.728;9.154;2022-10-28T07:24:48;97275.94;;;15.94;76.71
14689;BME280;7432;48.728;9.154;2022-10-28T07:27:14;97273.56;;;16.07;77.43
14689;BME280;7432;48.728;9.154;2022-10-28T07:29:41;97286.84;;;16.12;77.45
14689;BME280;7432;48.728;9.154;2022-10-28T07:32:07;97281.84;;;16.11;78.23
14689;BME280;7432;48.728;9.154;2022-10-28T07:34:33;97294.25;;;16.00;78.55
14689;BME280;7432;48.728;9.154;2022-10-28T07:37:01;97297.53;;;15.94;79.04
14689;BME280;7432;48.728;9.154;2022-10-28T07:39:28;97291.25;;;15.89;79.75
14689;BME280;7432;48.728;9.154;2022-10-28T07:41:55;97286.75;;;15.83;80.29
14689;BME280;7432;48.728;9.154;2022-10-28T07:44:21;97279.63;;;15.77;80.02
14689;BME280;7432;48.728;9.154;2022-10-28T07:46:47;97289.88;;;15.78;78.15
14689;BME280;7432;48.728;9.154;2022-10-28T07:49:14;97284.97;;;15.83;77.54
14689;BME280;7432;48.728;9.154;2022-10-28T07:51:41;97288.81;;;15.87;78.56
14689;BME280;7432;48.728;9.154;2022-10-28T07:54:09;97293.78;;;15.97;75.69
14689;BME280;7432;48.728;9.154;2022-10-28T07:56:35;97289.34;;;16.06;76.45
14689;BME280;7432;48.728;9.154;2022-10-28T07:59:02;97298.03;;;16.13;76.51
14689;BME280;7432;48.728;9.154;2022-10-28T08:01:28;97299.25;;;16.25;77.03
14689;BME280;7432;48.728;9.154;2022-10-28T08:03:55;97293.81;;;16.34;77.57
14689;BME280;7432;48.728;9.154;2022-10-28T08:06:22;97294.47;;;16.51;77.16
14689;BME280;7432;48.728;9.154;2022-10-28T08:08:52;97288.41;;;16.58;77.43
14689;BME280;7432;48.728;9.154;2022-10-28T08:11:22;97301.06;;;16.62;77.27
14689;BME280;7432;48.728;9.154;2022-10-28T08:13:49;97297.81;;;16.59;78.50
14689;BME280;7432;48.728;9.154;2022-10-28T08:16:16;97290.84;;;16.60;78.79
14689;BME280;7432;48.728;9.154;2022-10-28T08:18:43;97304.00;;;16.58;77.53
14689;BME280;7432;48.728;9.154;2022-10-28T08:21:11;97292.50;;;16.53;77.46
14689;BME280;7432;48.728;9.154;2022-10-28T08:23:38;97297.06;;;16.51;78.83
14689;BME280;7432;48.728;9.154;2022-10-28T08:26:06;97298.41;;;16.47;79.12
14689;BME280;7432;48.728;9.154;2022-10-28T08:28:34;97298.06;;;16.50;76.00
14689;BME280;7432;48.728;9.154;2022-10-28T08:31:01;97306.84;;;16.49;75.99
14689;BME280;7432;48.728;9.154;2022-10-28T08:33:30;97304.88;;;16.51;76.93
14689;BME280;7432;48.728;9.154;2022-10-28T08:35:57;97301.28;;;16.52;77.13
14689;BME280;7432;48.728;9.154;2022-10-28T08:38:23;97298.69;;;16.52;77.38
14689;BME280;7432;48.728;9.154;2022-10-28T08:40:57;97297.81;;;16.59;77.51
14689;BME280;7432;48.728;9.154;2022-10-28T08:43:36;97300.19;;;16.69;76.51
14689;BME280;7432;48.728;9.154;2022-10-28T08:46:10;97297.16;;;16.80;75.24
14689;BME280;7432;48.728;9.154;2022-10-28T08:48:40;97294.88;;;16.92;71.55
14689;BME280;7432;48.728;9.154;2022-10-28T08:51:11;97293.72;;;17.09;73.72
14689;BME280;7432;48.728;9.154;2022-10-28T08:53:44;97301.53;;;17.24;72.40
14689;BME280;7432;48.728;9.154;2022-10-28T08:56:15;97291.06;;;17.38;68.19
14689;BME280;7432;48.728;9.154;2022-10-28T08:58:46;97286.47;;;17.55;70.07
14689;BME280;7432;48.728;9.154;2022-10-28T09:01:19;97288.72;;;17.79;70.67
14689;BME280;7432;48.728;9.154;2022-10-28T09:03:55;97297.13;;;17.96;66.18
14689;BME280;7432;48.728;9.154;2022-10-28T09:06:25;97301.53;;;18.16;66.18
14689;BME280;7432;48.728;9.154;2022-10-28T09:08:52;97301.88;;;18.34;65.75
14689;BME280;7432;48.728;9.154;2022-10-28T09:11:37;97302.66;;;18.56;64.16
14689;BME280;7432;48.728;9.154;2022-10-28T09:14:18;97311.06;;;18.79;63.11
14689;BME280;7432;48.728;9.154;2022-10-28T09:16:49;97320.28;;;19.10;61.38
14689;BME280;7432;48.728;9.154;2022-10-28T09:19:30;97325.31;;;19.11;62.13
14689;BME280;7432;48.728;9.154;2022-10-28T09:22:15;97321.47;;;19.07;62.03
14689;BME280;7432;48.728;9.154;2022-10-28T09:24:49;97337.94;;;19.08;62.24
14689;BME280;7432;48.728;9.154;2022-10-28T09:27:26;97345.91;;;19.00;63.42
14689;BME280;7432;48.728;9.154;2022-10-28T09:30:01;97333.06;;;18.98;64.24
14689;BME280;7432;48.728;9.154;2022-10-28T09:32:37;97332.06;;;18.99;63.41
14689;BME280;7432;48.728;9.154;2022-10-28T09:35:10;97316.00;;;19.02;64.78
14689;BME280;7432;48.728;9.154;2022-10-28T09:37:40;97283.31;;;19.06;61.90
14689;BME280;7432;48.728;9.154;2022-10-28T09:40:14;97293.75;;;19.06;63.67
14689;BME280;7432;48.728;9.154;2022-10-28T09:42:45;97295.94;;;19.03;65.62
14689;BME280;7432;48.728;9.154;2022-10-28T09:45:17;97294.28;;;18.95;65.55
14689;BME280;7432;48.728;9.154;2022-10-28T09:47:48;97304.38;;;19.05;64.97
14689;BME280;7432;48.728;9.154;2022-10-28T09:50:19;97313.72;;;19.27;63.16
14689;BME280;7432;48.728;9.154;2022-10-28T09:52:51;97308.44;;;19.55;64.07
14689;BME280;7432;48.728;9.154;2022-10-28T09:55:20;97310.38;;;19.93;61.51
14689;BME280;7432;48.728;9.154;2022-10-28T09:57:48;97313.47;;;20.43;60.71
14689;BME280;7432;48.728;9.154;2022-10-28T10:00:16;97311.00;;;20.81;59.08
14689;BME280;7432;48.728;9.154;2022-10-28T10:02:43;97306.53;;;21.07;57.89
14689;BME280;7432;48.728;9.154;2022-10-28T10:05:11;97300.44;;;21.26;57.44
14689;BME280;7432;48.728;9.154;2022-10-28T10:07:43;97310.31;;;21.31;55.44
14689;BME280;7432;48.728;9.154;2022-10-28T10:10:13;97312.31;;;21.36;55.93
14689;BME280;7432;48.728;9.154;2022-10-28T10:12:41;97317.72;;;21.47;55.37
14689;BME280;7432;48.728;9.154;2022-10-28T10:15:13;97310.97;;;21.64;55.55
14689;BME280;7432;48.728;9.154;2022-10-28T10:17:44;97308.16;;;21.59;55.33
14689;BME280;7432;48.728;9.154;2022-10-28T10:20:13;97326.50;;;21.66;56.05
14689;BME280;7432;48.728;9.154;2022-10-28T10:22:41;97341.63;;;21.64;57.03
14689;BME280;7432;48.728;9.154;2022-10-28T10:25:23;97332.78;;;21.58;58.53
14689;BME280;7432;48.728;9.154;2022-10-28T10:27:51;97321.91;;;21.48;60.63
14689;BME280;7432;48.728;9.154;2022-10-28T10:30:21;97296.22;;;21.25;60.74
14689;BME280;7432;48.728;9.154;2022-10-28T10:32:50;97288.03;;;21.09;59.26
14689;BME280;7432;48.728;9.154;2022-10-28T10:35:20;97299.50;;;21.08;58.47
14689;BME280;7432;48.728;9.154;2022-10-28T10:37:48;97305.31;;;21.10;59.98
14689;BME280;7432;48.728;9.154;2022-10-28T10:40:20;97311.75;;;21.20;60.20
14689;BME280;7432;48.728;9.154;2022-10-28T10:42:48;97315.75;;;21.36;60.64
14689;BME280;7432;48.728;9.154;2022-10-28T10:45:21;97296.38;;;21.37;59.53
14689;BME280;7432;48.728;9.154;2022-10-28T10:48:12;97274.63;;;21.30;58.54
14689;BME280;7432;48.728;9.154;2022-10-28T10:50:40;97296.00;;;21.34;58.13
14689;BME280;7432;48.728;9.154;2022-10-28T10:53:16;97305.44;;;21.35;60.06
14689;BME280;7432;48.728;9.154;2022-10-28T10:55:49;97294.56;;;21.38;60.74
14689;BME280;7432;48.728;9.154;2022-10-28T10:58:17;97293.97;;;21.36;58.62
14689;BME280;7432;48.728;9.154;2022-10-28T11:00:47;97282.28;;;21.32;58.88
14689;BME280;7432;48.728;9.154;2022-10-28T11:03:18;97298.16;;;21.37;58.93
14689;BME280;7432;48.728;9.154;2022-10-28T11:05:47;97294.78;;;21.30;59.30
14689;BME280;7432;48.728;9.154;2022-10-28T11:08:30;97291.13;;;21.37;58.56
14689;BME280;7432;48.728;9.154;2022-10-28T11:11:07;97293.34;;;21.40;59.00
14689;BME280;7432;48.728;9.154;2022-10-28T11:13:36;97283.81;;;21.52;57.50
14689;BME280;7432;48.728;9.154;2022-10-28T11:16:04;97285.13;;;21.68;58.49
14689;BME280;7432;48.728;9.154;2022-10-28T11:18:40;97279.97;;;21.86;57.03
14689;BME280;7432;48.728;9.154;2022-10-28T11:21:18;97279.19;;;21.85;56.58
14689;BME280;7432;48.728;9.154;2022-10-28T11:23:56;97280.03;;;21.79;57.23
14689;BME280;7432;48.728;9.154;2022-10-28T11:26:32;97294.56;;;21.75;57.77
14689;BME280;7432;48.728;9.154;2022-10-28T11:29:07;97292.81;;;21.63;57.94
14689;BME280;7432;48.728;9.154;2022-10-28T11:32:00;97286.03;;;21.49;59.05
14689;BME280;7432;48.728;9.154;2022-10-28T11:34:45;97281.03;;;21.47;57.90
14689;BME280;7432;48.728;9.154;2022-10-28T11:37:24;97279.41;;;21.46;58.58
14689;BME280;7432;48.728;9.154;2022-10-28T11:40:02;97279.97;;;21.55;56.87
14689;BME280;7432;48.728;9.154;2022-10-28T11:42:41;97283.97;;;21.64;57.76
14689;BME280;7432;48.728;9.154;2022-10-28T11:45:15;97270.28;;;21.55;60.10
14689;BME280;7432;48.728;9.154;2022-10-28T11:47:58;97281.19;;;21.52;58.02
14689;BME280;7432;48.728;9.154;2022-10-28T11:50:37;97273.97;;;21.41;59.70
14689;BME280;7432;48.728;9.154;2022-10-28T11:53:23;97242.72;;;21.40;60.16
14689;BME280;7432;48.728;9.154;2022-10-28T11:55:59;97215.97;;;21.31;60.01
14689;BME280;7432;48.728;9.154;2022-10-28T11:58:34;97214.38;;;21.30;58.29
14689;BME280;7432;48.728;9.154;2022-10-28T12:01:18;97218.78;;;21.36;59.36
14689;BME280;7432;48.728;9.154;2022-10-28T12:03:58;97213.28;;;21.44;57.56
14689;BME280;7432;48.728;9.154;2022-10-28T12:06:45;97208.53;;;21.59;57.56
14689;BME280;7432;48.728;9.154;2022-10-28T12:09:23;97211.72;;;21.68;57.87
14689;BME280;7432;48.728;9.154;2022-10-28T12:12:00;97206.78;;;21.78;58.84
14689;BME280;7432;48.728;9.154;2022-10-28T12:14:35;97213.91;;;21.71;58.81
14689;BME280;7432;48.728;9.154;2022-10-28T12:17:08;97225.81;;;21.67;59.24
14689;BME280;7432;48.728;9.154;2022-10-28T12:19:41;97220.06;;;21.83;58.34
14689;BME280;7432;48.728;9.154;2022-10-28T12:22:12;97236.03;;;21.88;58.83
14689;BME280;7432;48.728;9.154;2022-10-28T12:24:43;97252.81;;;22.05;59.41
14689;BME280;7432;48.728;9.154;2022-10-28T12:27:14;97248.13;;;22.14;58.50
14689;BME280;7432;48.728;9.154;2022-10-28T12:29:44;97246.53;;;22.13;59.87
14689;BME280;7432;48.728;9.154;2022-10-28T12:32:17;97240.25;;;21.89;60.56
14689;BME280;7432;48.728;9.154;2022-10-28T12:34:46;97235.22;;;21.88;60.78
14689;BME280;7432;48.728;9.154;2022-10-28T12:37:19;97237.63;;;21.89;60.63
14689;BME280;7432;48.728;9.154;2022-10-28T12:39:52;97228.34;;;21.87;60.13
14689;BME280;7432;48.728;9.154;2022-10-28T12:42:24;97231.06;;;22.05;60.21
14689;BME280;7432;48.728;9.154;2022-10-28T12:44:56;97224.75;;;22.12;59.45
14689;BME280;7432;48.728;9.154;2022-10-28T12:47:27;97218.69;;;22.12;59.99
14689;BME280;7432;48.728;9.154;2022-10-28T12:50:04;97216.72;;;22.07;60.74
14689;BME280;7432;48.728;9.154;2022-10-28T12:52:40;97229.06;;;22.00;58.58
14689;BME280;7432;48.728;9.154;2022-10-28T12:55:18;97222.25;;;21.93;59.34
14689;BME280;7432;48.728;9.154;2022-10-28T12:57:49;97223.56;;;21.77;59.59
14689;BME280;7432;48.728;9.154;2022-10-28T13:00:19;97212.31;;;21.70;59.42
14689;BME280;7432;48.728;9.154;2022-10-28T13:02:50;97212.34;;;21.63;59.94
14689;BME280;7432;48.728;9.154;2022-10-28T13:05:21;97213.78;;;21.59;60.93
14689;BME280;7432;48.728;9.154;2022-10-28T13:08:02;97206.16;;;21.51;61.91
14689;BME280;7432;48.728;9.154;2022-10-28T13:10:41;97211.41;;;21.51;61.15
14689;BME280;7432;48.728;9.154;2022-10-28T13:13:34;97215.50;;;21.41;62.01
14689;BME280;7432;48.728;9.154;2022-10-28T13:16:12;97220.34;;;21.44;61.57
14689;BME280;7432;48.728;9.154;2022-10-28T13:21:55;97208.91;;;21.32;63.88
14689;BME280;7432;48.728;9.154;2022-10-28T13:24:30;97215.78;;;21.26;64.24
14689;BME280;7432;48.728;9.154;2022-10-28T13:27:01;97212.72;;;21.36;62.01
14689;BME280;7432;48.728;9.154;2022-10-28T13:29:31;97212.22;;;21.52;60.22